createdAt,value
2023-02-18T00:00:29.456Z,0.40
2023-02-18T00:02:56.393Z,0.77
2023-02-18T00:05:23.676Z,0.40
2023-02-18T00:07:50.548Z,0.37
2023-02-18T00:10:17.694Z,0.63
2023-02-18T00:12:45.278Z,1.17
2023-02-18T00:15:12.393Z,0.67
2023-02-18T00:17:39.723Z,1.27
2023-02-18T00:20:07.382Z,1.03
2023-02-18T00:22:34.269Z,2.50
2023-02-18T00:25:01.177Z,0.40
2023-02-18T00:27:28.089Z,0.50
2023-02-18T00:29:54.998Z,1.33
2023-02-18T00:32:21.976Z,0.57
2023-02-18T00:34:49.429Z,0.70
2023-02-18T00:37:16.342Z,0.90
2023-02-18T00:39:44.247Z,0.83
2023-02-18T00:42:11.190Z,0.50
2023-02-18T00:44:38.027Z,0.40
2023-02-18T00:47:05.075Z,0.70
2023-02-18T00:49:32.362Z,0.97
2023-02-18T00:51:59.259Z,0.50
2023-02-18T00:54:26.210Z,0.70
2023-02-18T00:56:53.122Z,0.83
2023-02-18T00:59:19.962Z,2.13
2023-02-18T01:01:47.155Z,1.20
2023-02-18T01:04:14.153Z,1.33
2023-02-18T01:06:41.161Z,1.30
2023-02-18T01:09:08.113Z,2.03
2023-02-18T01:11:34.954Z,1.13
2023-02-18T01:14:02.029Z,1.37
2023-02-18T01:16:30.002Z,1.00
2023-02-18T01:18:56.836Z,0.83
2023-02-18T01:21:26.130Z,1.73
2023-02-18T01:23:53.262Z,1.47
2023-02-18T01:26:20.162Z,1.50
2023-02-18T01:28:47.025Z,0.93
2023-02-18T01:31:15.224Z,2.03
2023-02-18T01:33:42.448Z,2.30
2023-02-18T01:36:11.151Z,1.43
2023-02-18T01:38:38.510Z,1.30
2023-02-18T01:41:05.895Z,1.90
2023-02-18T01:43:33.092Z,2.27
2023-02-18T01:46:19.940Z,2.97
2023-02-18T01:48:58.503Z,3.03
2023-02-18T01:51:32.422Z,2.43
2023-02-18T01:54:29.714Z,1.00
2023-02-18T01:57:07.539Z,1.67
2023-02-18T01:59:44.196Z,1.90
2023-02-18T02:02:17.280Z,3.87
2023-02-18T02:04:45.088Z,1.77
2023-02-18T02:07:12.477Z,1.20
2023-02-18T02:09:41.028Z,2.50
2023-02-18T02:12:10.960Z,2.67
2023-02-18T02:14:55.806Z,2.30
2023-02-18T02:18:00.053Z,3.03
2023-02-18T02:20:53.161Z,3.47
2023-02-18T02:23:26.756Z,1.63
2023-02-18T02:26:15.307Z,4.00
2023-02-18T02:29:06.059Z,2.57
2023-02-18T02:32:01.254Z,2.23
2023-02-18T02:34:30.545Z,1.60
2023-02-18T02:37:15.561Z,2.10
2023-02-18T02:40:01.498Z,2.73
2023-02-18T02:42:49.594Z,4.70
2023-02-18T02:45:20.590Z,3.23
2023-02-18T02:48:09.203Z,3.43
2023-02-18T02:50:46.174Z,2.67
2023-02-18T02:53:20.448Z,2.67
2023-02-18T02:55:47.485Z,2.40
2023-02-18T02:58:19.386Z,2.90
2023-02-18T03:01:22.372Z,3.17
2023-02-18T03:04:17.456Z,2.90
2023-02-18T03:06:51.206Z,4.30
2023-02-18T03:09:40.212Z,3.90
2023-02-18T03:12:16.189Z,5.40
2023-02-18T03:14:55.318Z,2.93
2023-02-18T03:17:35.048Z,3.23
2023-02-18T03:20:15.844Z,3.17
2023-02-18T03:22:50.621Z,2.50
2023-02-18T03:25:18.930Z,2.23
2023-02-18T03:27:59.610Z,3.40
2023-02-18T03:30:32.307Z,2.80
2023-02-18T03:33:04.906Z,3.63
2023-02-18T03:35:32.174Z,1.80
2023-02-18T03:38:14.016Z,2.07
2023-02-18T03:40:40.976Z,3.87
2023-02-18T03:43:07.824Z,1.83
2023-02-18T03:45:34.871Z,3.23
2023-02-18T03:48:01.911Z,4.63
2023-02-18T03:50:28.846Z,3.87
2023-02-18T03:52:55.734Z,3.30
2023-02-18T03:55:22.667Z,3.43
2023-02-18T03:57:49.658Z,3.33
2023-02-18T04:00:17.148Z,4.00
2023-02-18T04:02:43.994Z,4.87
2023-02-18T04:05:11.100Z,4.00
2023-02-18T04:07:37.950Z,3.40
2023-02-18T04:10:06.292Z,3.17
2023-02-18T04:12:33.226Z,3.97
2023-02-18T04:15:00.173Z,2.43
2023-02-18T04:17:27.062Z,1.10
2023-02-18T04:19:53.899Z,3.93
2023-02-18T04:22:20.771Z,1.97
2023-02-18T04:24:47.608Z,2.87
2023-02-18T04:27:14.475Z,1.43
2023-02-18T04:29:41.720Z,1.83
2023-02-18T04:32:08.618Z,2.30
2023-02-18T04:34:35.512Z,1.30
2023-02-18T04:37:02.417Z,1.60
2023-02-18T04:39:29.269Z,1.17
2023-02-18T04:41:56.119Z,2.57
2023-02-18T04:44:23.007Z,1.83
2023-02-18T04:46:49.872Z,2.73
2023-02-18T04:49:16.666Z,1.53
2023-02-18T04:51:43.553Z,2.80
2023-02-18T04:54:10.498Z,2.47
2023-02-18T04:56:37.340Z,1.83
2023-02-18T04:59:04.178Z,4.40
2023-02-18T05:01:31.182Z,1.77
2023-02-18T05:03:58.082Z,2.77
2023-02-18T05:06:24.987Z,1.50
2023-02-18T05:08:51.891Z,1.73
2023-02-18T05:11:18.708Z,1.20
2023-02-18T05:13:45.597Z,1.97
2023-02-18T05:16:12.787Z,2.77
2023-02-18T05:18:40.183Z,1.40
2023-02-18T05:21:07.053Z,0.63
2023-02-18T05:23:34.102Z,1.37
2023-02-18T05:26:01.298Z,1.03
2023-02-18T05:28:28.106Z,1.70
2023-02-18T05:30:55.132Z,1.40
2023-02-18T05:33:22.180Z,1.40
2023-02-18T05:35:49.430Z,1.13
2023-02-18T05:38:16.298Z,0.93
2023-02-18T05:40:43.173Z,1.23
2023-02-18T05:43:10.055Z,0.73
2023-02-18T05:45:37.115Z,1.60
2023-02-18T05:48:04.134Z,1.60
2023-02-18T05:50:31.084Z,1.80
2023-02-18T05:52:57.934Z,0.70
2023-02-18T05:55:24.834Z,1.97
2023-02-18T05:57:52.116Z,1.13
2023-02-18T06:00:19.741Z,0.83
2023-02-18T06:02:46.732Z,1.02
2023-02-18T06:05:14.135Z,1.73
2023-02-18T06:07:41.084Z,1.33
2023-02-18T06:10:09.007Z,1.53
2023-02-18T06:12:35.991Z,2.33
2023-02-18T06:15:03.264Z,1.50
2023-02-18T06:17:30.119Z,2.37
2023-02-18T06:19:57.111Z,2.13
2023-02-18T06:22:23.946Z,2.25
2023-02-18T06:24:50.799Z,2.43
2023-02-18T06:27:17.666Z,1.80
2023-02-18T06:29:45.343Z,2.07
2023-02-18T06:32:12.280Z,2.23
2023-02-18T06:34:39.264Z,2.60
2023-02-18T06:37:06.144Z,1.33
2023-02-18T06:39:33.042Z,1.17
2023-02-18T06:42:00.487Z,1.95
2023-02-18T06:44:27.361Z,1.80
2023-02-18T06:46:54.315Z,1.57
2023-02-18T06:49:21.251Z,2.13
2023-02-18T06:51:48.127Z,3.13
2023-02-18T06:54:14.989Z,1.58
2023-02-18T06:56:41.857Z,1.92
2023-02-18T06:59:08.698Z,1.73
2023-02-18T07:01:35.562Z,2.43
2023-02-18T07:04:02.506Z,1.40
2023-02-18T07:06:29.463Z,1.33
2023-02-18T07:08:56.933Z,1.23
2023-02-18T07:11:23.942Z,1.97
2023-02-18T07:13:50.794Z,2.33
2023-02-18T07:16:17.700Z,1.38
2023-02-18T07:18:44.578Z,0.40
2023-02-18T07:21:11.527Z,1.07
2023-02-18T07:23:38.420Z,1.13
2023-02-18T07:26:10.810Z,1.23
2023-02-18T07:28:38.205Z,1.43
2023-02-18T07:31:05.305Z,0.40
2023-02-18T07:33:32.538Z,1.23
2023-02-18T07:36:00.991Z,0.97
2023-02-18T07:38:28.676Z,0.40
2023-02-18T07:40:56.280Z,1.45
2023-02-18T07:43:23.408Z,1.58
2023-02-18T07:45:50.419Z,1.17
2023-02-18T07:48:17.423Z,0.47
2023-02-18T07:50:45.676Z,0.40
2023-02-18T07:53:14.227Z,0.40
2023-02-18T07:55:50.253Z,1.30
2023-02-18T07:58:25.407Z,1.15
2023-02-18T08:00:54.277Z,1.35
2023-02-18T08:03:23.932Z,0.30
2023-02-18T08:05:52.058Z,0.50
2023-02-18T08:08:21.975Z,1.00
2023-02-18T08:10:50.283Z,0.77
2023-02-18T08:13:17.299Z,0.40
2023-02-18T08:15:44.224Z,0.50
2023-02-18T08:18:19.765Z,0.20
2023-02-18T08:20:47.684Z,0.30
2023-02-18T08:23:15.825Z,0.57
2023-02-18T08:25:50.729Z,0.30
2023-02-18T08:28:19.370Z,0.85
2023-02-18T08:30:47.255Z,0.30
2023-02-18T08:33:14.732Z,0.68
2023-02-18T08:35:42.239Z,0.30
2023-02-18T08:38:09.124Z,0.30
2023-02-18T08:40:36.009Z,0.30
2023-02-18T08:43:02.921Z,1.15
2023-02-18T08:45:29.857Z,0.30
2023-02-18T08:48:18.500Z,0.60
2023-02-18T08:50:43.630Z,0.32
2023-02-18T08:53:10.507Z,0.50
2023-02-18T08:55:40.927Z,0.20
2023-02-18T08:58:07.829Z,0.20
2023-02-18T09:00:35.292Z,0.20
2023-02-18T09:03:02.659Z,0.50
2023-02-18T09:05:29.779Z,0.25
2023-02-18T09:07:56.628Z,0.38
2023-02-18T09:10:24.329Z,0.40
2023-02-18T09:12:51.400Z,0.50
2023-02-18T09:15:18.437Z,0.20
2023-02-18T09:17:45.800Z,0.20
2023-02-18T09:20:13.454Z,0.20
2023-02-18T09:22:40.727Z,0.47
2023-02-18T09:25:07.929Z,0.55
2023-02-18T09:27:34.915Z,0.30
2023-02-18T09:30:01.929Z,0.20
2023-02-18T09:32:35.890Z,0.82
2023-02-18T09:35:04.480Z,0.15
2023-02-18T09:37:31.363Z,0.30
2023-02-18T09:39:58.303Z,0.30
2023-02-18T09:42:34.281Z,0.52
2023-02-18T09:45:05.309Z,0.63
2023-02-18T09:47:32.120Z,0.60
2023-02-18T09:50:03.501Z,0.20
2023-02-18T09:52:34.082Z,0.20
2023-02-18T09:55:11.344Z,0.20
2023-02-18T09:57:45.103Z,0.28
2023-02-18T10:00:25.997Z,0.70
2023-02-18T10:02:59.890Z,0.30
2023-02-18T10:05:29.452Z,0.57
2023-02-18T10:08:01.994Z,0.55
2023-02-18T10:10:40.490Z,0.20
2023-02-18T10:13:16.471Z,0.50
2023-02-18T10:15:52.234Z,0.28
2023-02-18T10:18:35.412Z,0.30
2023-02-18T10:21:11.938Z,0.40
2023-02-18T10:23:42.015Z,0.20
2023-02-18T10:26:16.184Z,0.20
2023-02-18T10:28:43.499Z,0.20
2023-02-18T10:31:15.150Z,0.20
2023-02-18T10:33:57.099Z,0.43
2023-02-18T10:36:29.299Z,0.22
2023-02-18T10:39:19.158Z,0.43
2023-02-18T10:42:17.382Z,0.20
2023-02-18T10:45:03.673Z,0.40
2023-02-18T10:47:38.350Z,0.20
2023-02-18T10:50:19.537Z,0.30
2023-02-18T10:52:51.330Z,0.20
2023-02-18T10:55:19.087Z,0.30
2023-02-18T10:57:54.755Z,1.00
2023-02-18T11:00:27.278Z,0.28
2023-02-18T11:03:17.654Z,0.87
2023-02-18T11:05:47.554Z,0.30
2023-02-18T11:08:28.847Z,1.07
2023-02-18T11:10:57.300Z,0.40
2023-02-18T11:13:30.516Z,0.20
2023-02-18T11:16:06.332Z,0.20
2023-02-18T11:18:40.517Z,0.20
2023-02-18T11:21:31.131Z,0.30
2023-02-18T11:24:05.950Z,0.68
2023-02-18T11:26:36.126Z,0.65
2023-02-18T11:29:26.191Z,0.40
2023-02-18T11:31:56.858Z,0.80
2023-02-18T11:34:29.844Z,0.40
2023-02-18T11:37:08.195Z,0.83
2023-02-18T11:39:35.623Z,0.50
2023-02-18T11:42:05.448Z,0.30
2023-02-18T11:44:36.022Z,0.40
2023-02-18T11:47:14.865Z,0.30
2023-02-18T11:49:44.017Z,0.50
2023-02-18T11:52:27.342Z,0.20
2023-02-18T11:55:13.916Z,0.20
2023-02-18T11:57:55.152Z,0.30
2023-02-18T12:00:24.064Z,0.60
2023-02-18T12:02:54.922Z,0.30
2023-02-18T12:05:23.720Z,0.10
2023-02-18T12:07:57.099Z,0.27
2023-02-18T12:10:40.029Z,0.47
2023-02-18T12:13:25.706Z,0.30
2023-02-18T12:16:04.620Z,0.67
2023-02-18T12:18:52.841Z,0.50
2023-02-18T12:21:47.374Z,0.23
2023-02-18T12:24:14.523Z,0.40
2023-02-18T12:27:20.169Z,0.20
2023-02-18T12:30:12.977Z,0.40
2023-02-18T12:33:06.114Z,0.40
2023-02-18T12:36:21.257Z,0.20
2023-02-18T12:38:57.004Z,0.20
2023-02-18T12:41:51.506Z,0.43
2023-02-18T12:44:47.435Z,0.40
2023-02-18T12:47:37.495Z,0.30
2023-02-18T12:50:38.012Z,0.40
2023-02-18T12:53:45.336Z,0.30
2023-02-18T12:56:18.241Z,0.20
2023-02-18T12:58:53.982Z,0.63
2023-02-18T13:01:42.294Z,0.50
2023-02-18T13:04:24.043Z,0.43
2023-02-18T13:07:09.747Z,0.43
2023-02-18T13:09:48.661Z,0.27
2023-02-18T13:12:20.076Z,0.40
2023-02-18T13:15:01.210Z,0.57
2023-02-18T13:17:34.005Z,0.70
2023-02-18T13:20:07.550Z,0.40
2023-02-18T13:22:35.103Z,0.40
2023-02-18T13:25:02.038Z,0.37
2023-02-18T13:27:41.137Z,0.40
2023-02-18T13:30:21.574Z,0.93
2023-02-18T13:33:01.019Z,0.47
2023-02-18T13:35:48.390Z,0.20
2023-02-18T13:38:47.504Z,0.30
2023-02-18T13:41:14.707Z,0.30
2023-02-18T13:43:41.537Z,0.30
2023-02-18T13:46:19.913Z,0.60
2023-02-18T13:49:03.848Z,0.43
2023-02-18T13:51:34.255Z,0.83
2023-02-18T13:54:23.927Z,0.37
2023-02-18T13:57:03.687Z,0.67
2023-02-18T13:59:57.817Z,0.20
2023-02-18T14:02:27.438Z,0.20
2023-02-18T14:05:08.472Z,0.87
2023-02-18T14:07:44.428Z,0.70
2023-02-18T14:10:25.532Z,1.03
2023-02-18T14:12:58.090Z,0.93
2023-02-18T14:15:25.032Z,0.45
2023-02-18T14:18:24.481Z,0.33
2023-02-18T14:20:52.636Z,0.40
2023-02-18T14:23:19.593Z,0.60
2023-02-18T14:26:19.376Z,1.43
2023-02-18T14:28:55.188Z,1.27
2023-02-18T14:31:34.253Z,0.30
2023-02-18T14:34:09.310Z,0.70
2023-02-18T14:36:57.419Z,0.90
2023-02-18T14:40:01.182Z,0.95
2023-02-18T14:42:39.969Z,0.90
2023-02-18T14:45:28.563Z,1.00
2023-02-18T14:47:58.662Z,0.90
2023-02-18T14:50:25.590Z,1.38
2023-02-18T14:52:57.828Z,1.00
2023-02-18T14:55:29.952Z,0.85
2023-02-18T14:58:02.817Z,1.23
2023-02-18T15:00:33.867Z,0.63
2023-02-18T15:03:02.055Z,1.33
2023-02-18T15:05:32.290Z,0.32
2023-02-18T15:08:04.733Z,1.10
2023-02-18T15:10:43.934Z,1.60
2023-02-18T15:13:34.262Z,0.33
2023-02-18T15:16:04.973Z,0.50
2023-02-18T15:18:57.026Z,0.87
2023-02-18T15:21:39.395Z,0.45
2023-02-18T15:24:14.024Z,0.40
2023-02-18T15:26:49.182Z,0.82
2023-02-18T15:29:21.020Z,1.83
2023-02-18T15:31:49.152Z,1.02
2023-02-18T15:34:29.791Z,0.52
2023-02-18T15:36:58.651Z,1.02
2023-02-18T15:39:26.081Z,1.45
2023-02-18T15:41:59.785Z,0.53
2023-02-18T15:44:30.091Z,1.67
2023-02-18T15:47:01.434Z,0.55
2023-02-18T15:49:29.382Z,1.13
2023-02-18T15:52:00.616Z,1.33
2023-02-18T15:58:34.575Z,1.13
2023-02-18T16:01:28.220Z,1.27
2023-02-18T16:03:56.800Z,0.52
2023-02-18T16:06:29.655Z,0.77
2023-02-18T16:12:30.132Z,0.55
2023-02-18T16:14:58.915Z,0.45
2023-02-18T16:17:28.231Z,0.55
2023-02-18T16:20:05.254Z,1.17
2023-02-18T16:22:33.430Z,0.40
2023-02-18T16:25:01.400Z,0.77
2023-02-18T16:27:33.936Z,1.10
2023-02-18T16:30:07.573Z,0.30
2023-02-18T16:32:34.206Z,0.50
2023-02-18T16:35:00.924Z,0.40
2023-02-18T16:37:39.464Z,0.45
2023-02-18T16:40:29.157Z,1.52
2023-02-18T16:42:58.056Z,1.75
2023-02-18T16:45:38.338Z,0.47
2023-02-18T16:48:05.787Z,1.60
2023-02-18T16:50:34.051Z,0.60
2023-02-18T16:53:01.086Z,0.77
2023-02-18T16:55:29.486Z,0.55
2023-02-18T16:57:56.983Z,0.93
2023-02-18T17:00:24.055Z,0.30
2023-02-18T17:02:54.325Z,0.90
2023-02-18T17:05:27.670Z,1.85
2023-02-18T17:08:04.672Z,0.55
2023-02-18T17:10:31.316Z,1.23
2023-02-18T17:12:58.040Z,1.13
2023-02-18T17:15:34.679Z,0.45
2023-02-18T17:18:04.419Z,0.82
2023-02-18T17:20:34.148Z,0.52
2023-02-18T17:23:00.799Z,0.43
2023-02-18T17:25:34.588Z,0.80
2023-02-18T17:28:01.673Z,0.65
2023-02-18T17:30:29.688Z,0.45
2023-02-18T17:32:56.436Z,1.00
2023-02-18T17:35:23.884Z,1.70
2023-02-18T17:37:50.569Z,1.33
2023-02-18T17:40:26.396Z,1.17
2023-02-18T17:42:55.209Z,1.60
2023-02-18T17:45:29.757Z,0.50
2023-02-18T17:47:58.091Z,0.52
2023-02-18T17:50:25.501Z,0.68
2023-02-18T17:52:52.425Z,1.38
2023-02-18T17:55:22.997Z,0.40
2023-02-18T17:57:50.788Z,0.57
2023-02-18T18:00:22.267Z,1.02
2023-02-18T18:02:49.232Z,0.95
2023-02-18T18:05:24.705Z,0.40
2023-02-18T18:07:52.040Z,0.40
2023-02-18T18:10:25.303Z,1.92
2023-02-18T18:12:51.977Z,0.83
2023-02-18T18:15:27.431Z,0.90
2023-02-18T18:17:55.371Z,1.37
2023-02-18T18:20:23.616Z,0.37
2023-02-18T18:22:51.764Z,0.83
2023-02-18T18:25:26.372Z,1.07
2023-02-18T18:27:53.686Z,0.80
2023-02-18T18:30:26.902Z,0.88
2023-02-18T18:32:53.899Z,1.00
2023-02-18T18:35:30.534Z,0.73
2023-02-18T18:37:58.117Z,0.45
2023-02-18T18:40:28.144Z,0.60
2023-02-18T18:42:56.473Z,0.70
2023-02-18T18:45:29.360Z,1.20
2023-02-18T18:47:56.196Z,0.70
2023-02-18T18:50:50.711Z,0.70
2023-02-18T18:53:25.875Z,0.30
2023-02-18T18:55:57.056Z,0.87
2023-02-18T18:58:27.124Z,0.30
2023-02-18T19:00:59.574Z,0.30
2023-02-18T19:03:28.224Z,2.27
2023-02-18T19:05:55.178Z,0.90
2023-02-18T19:08:22.296Z,0.60
2023-02-18T19:10:54.988Z,0.60
2023-02-18T19:13:27.534Z,1.03
2023-02-18T19:16:03.649Z,0.83
2023-02-18T19:18:33.420Z,0.30
2023-02-18T19:21:04.862Z,0.30
2023-02-18T19:23:32.440Z,0.60
2023-02-18T19:25:59.296Z,0.50
2023-02-18T19:28:26.639Z,1.03
2023-02-18T19:30:53.360Z,0.47
2023-02-18T19:33:20.121Z,0.88
2023-02-18T19:35:46.799Z,0.50
2023-02-18T19:38:15.973Z,0.40
2023-02-18T19:40:46.049Z,1.70
2023-02-18T19:43:12.829Z,1.47
2023-02-18T19:45:46.049Z,0.60
2023-02-18T19:48:14.021Z,1.07
2023-02-18T19:50:42.527Z,0.67
2023-02-18T19:53:11.475Z,0.30
2023-02-18T19:55:38.869Z,1.03
2023-02-18T19:58:05.693Z,2.13
2023-02-18T20:00:32.420Z,0.93
2023-02-18T20:02:59.050Z,0.90
2023-02-18T20:05:25.792Z,0.37
2023-02-18T20:07:52.420Z,1.35
2023-02-18T20:10:22.603Z,1.00
2023-02-18T20:12:53.902Z,0.50
2023-02-18T20:15:21.550Z,1.07
2023-02-18T20:17:48.299Z,0.95
2023-02-18T20:20:18.821Z,0.80
2023-02-18T20:22:45.621Z,0.90
2023-02-18T20:25:15.325Z,2.00
2023-02-18T20:27:58.148Z,0.90
2023-02-18T20:30:26.921Z,1.80
2023-02-18T20:32:53.954Z,0.85
2023-02-18T20:35:20.554Z,0.93
2023-02-18T20:37:47.209Z,1.13
2023-02-18T20:40:14.343Z,1.33
2023-02-18T20:42:42.093Z,1.27
2023-02-18T20:45:10.620Z,1.70
2023-02-18T20:47:37.244Z,1.27
2023-02-18T20:50:04.170Z,1.30
2023-02-18T20:52:33.549Z,0.93
2023-02-18T20:55:05.937Z,2.77
2023-02-18T20:57:32.560Z,1.80
2023-02-18T21:00:00.954Z,0.70
2023-02-18T21:02:28.087Z,1.60
2023-02-18T21:04:54.733Z,1.47
2023-02-18T21:07:22.288Z,1.33
2023-02-18T21:09:48.994Z,2.23
2023-02-18T21:12:15.697Z,0.77
2023-02-18T21:14:42.296Z,1.53
2023-02-18T21:17:09.736Z,1.90
2023-02-18T21:19:36.533Z,1.83
2023-02-18T21:22:03.318Z,0.80
2023-02-18T21:24:31.928Z,1.23
2023-02-18T21:26:58.719Z,1.80
2023-02-18T21:29:25.567Z,1.13
2023-02-18T21:31:52.272Z,0.83
2023-02-18T21:34:19.024Z,1.20
2023-02-18T21:36:45.700Z,2.22
2023-02-18T21:39:12.398Z,2.93
2023-02-18T21:41:41.011Z,1.13
2023-02-18T21:44:10.219Z,1.03
2023-02-18T21:46:37.504Z,1.10
2023-02-18T21:49:12.302Z,1.30
2023-02-18T21:51:56.850Z,2.33
2023-02-18T21:54:32.651Z,1.10
2023-02-18T21:57:01.084Z,1.70
2023-02-18T21:59:29.552Z,0.90
2023-02-18T22:02:00.160Z,1.70
2023-02-18T22:04:28.256Z,2.17
2023-02-18T22:06:55.172Z,1.07
2023-02-18T22:09:21.925Z,0.57
2023-02-18T22:11:48.614Z,0.87
2023-02-18T22:14:16.789Z,1.10
2023-02-18T22:16:43.742Z,1.03
2023-02-18T22:19:12.100Z,0.97
2023-02-18T22:21:39.428Z,1.30
2023-02-18T22:24:08.271Z,1.50
2023-02-18T22:26:35.145Z,0.83
2023-02-18T22:29:02.085Z,1.23
2023-02-18T22:31:30.599Z,1.03
2023-02-18T22:33:58.516Z,0.77
2023-02-18T22:36:26.242Z,1.53
2023-02-18T22:38:53.305Z,2.17
2023-02-18T22:41:22.584Z,1.30
2023-02-18T22:44:16.597Z,2.40
2023-02-18T22:46:43.567Z,2.43
2023-02-18T22:49:11.285Z,1.90
2023-02-18T22:51:41.032Z,2.63
2023-02-18T22:54:12.396Z,4.83
2023-02-18T22:56:39.075Z,2.17
2023-02-18T22:59:06.283Z,2.17
2023-02-18T23:01:36.229Z,1.77
2023-02-18T23:04:08.499Z,1.13
2023-02-18T23:06:36.349Z,3.77
2023-02-18T23:09:04.237Z,2.30
2023-02-18T23:11:30.940Z,2.00
2023-02-18T23:14:16.285Z,2.53
2023-02-18T23:17:01.458Z,2.17
2023-02-18T23:19:29.883Z,1.60
2023-02-18T23:21:56.501Z,1.23
2023-02-18T23:24:23.751Z,2.00
2023-02-18T23:26:50.533Z,3.63
2023-02-18T23:29:18.266Z,2.00
2023-02-18T23:31:45.232Z,1.70
2023-02-18T23:34:18.548Z,2.33
2023-02-18T23:36:47.178Z,3.27
2023-02-18T23:39:17.892Z,1.90
2023-02-18T23:41:44.803Z,1.73
2023-02-18T23:44:15.852Z,1.40
2023-02-18T23:46:44.519Z,1.63
2023-02-18T23:49:22.157Z,1.43
2023-02-18T23:51:50.245Z,2.57
2023-02-18T23:54:17.124Z,0.83
2023-02-18T23:56:44.005Z,0.70
2023-02-18T23:59:13.638Z,1.23
